createdAt,value
2018-12-03T00:00:25.667Z,0.90
2018-12-03T00:02:28.800Z,1.10
2018-12-03T00:04:32.046Z,1.23
2018-12-03T00:06:35.181Z,1.17
2018-12-03T00:08:38.534Z,1.10
2018-12-03T00:10:41.700Z,1.10
2018-12-03T00:12:44.906Z,1.27
2018-12-03T00:14:48.063Z,0.90
2018-12-03T00:16:51.603Z,1.20
2018-12-03T00:18:54.758Z,1.00
2018-12-03T00:20:57.879Z,1.00
2018-12-03T00:23:01.018Z,0.90
2018-12-03T00:25:05.470Z,1.07
2018-12-03T00:27:08.595Z,0.93
2018-12-03T00:29:12.007Z,1.00
2018-12-03T00:31:15.446Z,1.00
2018-12-03T00:33:18.621Z,0.80
2018-12-03T00:35:21.775Z,0.87
2018-12-03T00:37:24.908Z,0.77
2018-12-03T00:39:28.105Z,0.70
2018-12-03T00:41:31.253Z,0.70
2018-12-03T00:43:34.404Z,0.70
2018-12-03T00:45:37.603Z,0.70
2018-12-03T00:47:40.751Z,0.80
2018-12-03T00:49:44.030Z,0.70
2018-12-03T00:51:47.146Z,0.60
2018-12-03T00:53:50.343Z,0.67
2018-12-03T00:55:53.495Z,1.10
2018-12-03T00:57:56.615Z,0.80
2018-12-03T01:00:00.066Z,0.80
2018-12-03T01:02:03.199Z,0.83
2018-12-03T01:04:06.911Z,0.80
2018-12-03T01:06:10.073Z,0.90
2018-12-03T01:08:13.212Z,0.77
2018-12-03T01:10:16.547Z,1.03
2018-12-03T01:12:19.710Z,0.80
2018-12-03T01:14:22.643Z,0.83
2018-12-03T01:16:25.838Z,0.70
2018-12-03T01:18:29.787Z,0.70
2018-12-03T01:20:33.142Z,0.70
2018-12-03T01:22:36.312Z,0.80
2018-12-03T01:24:39.669Z,0.87
2018-12-03T01:26:42.580Z,0.60
2018-12-03T01:28:45.734Z,0.50
2018-12-03T01:30:48.912Z,0.63
2018-12-03T01:32:52.062Z,0.67
2018-12-03T01:34:55.242Z,0.70
2018-12-03T01:36:58.419Z,0.63
2018-12-03T01:39:01.566Z,0.83
2018-12-03T01:41:05.366Z,0.70
2018-12-03T01:43:08.507Z,0.93
2018-12-03T01:45:12.599Z,0.73
2018-12-03T01:47:15.804Z,0.80
2018-12-03T01:49:18.959Z,0.80
2018-12-03T01:51:22.291Z,0.60
2018-12-03T01:53:25.454Z,0.67
2018-12-03T01:55:28.671Z,0.70
2018-12-03T01:57:31.820Z,0.80
2018-12-03T01:59:34.709Z,0.80
2018-12-03T02:01:38.031Z,0.87
2018-12-03T02:03:41.151Z,0.70
2018-12-03T02:05:44.283Z,0.63
2018-12-03T02:07:47.443Z,1.10
2018-12-03T02:09:50.562Z,1.17
2018-12-03T02:11:53.860Z,0.97
2018-12-03T02:13:57.011Z,1.10
2018-12-03T02:16:00.243Z,1.10
2018-12-03T02:18:03.431Z,0.90
2018-12-03T02:20:12.843Z,0.93
2018-12-03T02:22:16.047Z,0.67
2018-12-03T02:24:19.178Z,0.60
2018-12-03T02:26:22.327Z,0.70
2018-12-03T02:28:25.476Z,0.80
2018-12-03T02:30:28.621Z,0.60
2018-12-03T02:32:31.907Z,0.73
2018-12-03T02:34:35.055Z,0.73
2018-12-03T02:36:38.291Z,0.70
2018-12-03T02:38:41.463Z,0.70
2018-12-03T02:40:44.617Z,0.93
2018-12-03T02:42:47.811Z,0.80
2018-12-03T02:44:50.959Z,0.70
2018-12-03T02:46:54.139Z,0.77
2018-12-03T02:48:57.284Z,0.53
2018-12-03T02:51:00.439Z,0.73
2018-12-03T02:53:03.603Z,0.80
2018-12-03T02:55:07.987Z,1.00
2018-12-03T02:57:10.990Z,0.60
2018-12-03T02:59:14.151Z,0.77
2018-12-03T03:01:18.178Z,0.70
2018-12-03T03:03:21.343Z,0.90
2018-12-03T03:05:24.478Z,0.73
2018-12-03T03:07:27.610Z,0.80
2018-12-03T03:09:30.746Z,0.97
2018-12-03T03:11:33.951Z,1.07
2018-12-03T03:13:37.109Z,0.87
2018-12-03T03:15:40.268Z,0.80
2018-12-03T03:17:43.406Z,1.07
2018-12-03T03:19:46.949Z,0.77
2018-12-03T03:21:50.295Z,0.90
2018-12-03T03:23:53.474Z,0.90
2018-12-03T03:25:56.617Z,0.90
2018-12-03T03:27:59.750Z,0.80
2018-12-03T03:30:03.042Z,0.97
2018-12-03T03:32:06.592Z,0.70
2018-12-03T03:34:09.723Z,0.90
2018-12-03T03:36:12.867Z,0.70
2018-12-03T03:38:16.014Z,1.10
2018-12-03T03:40:19.158Z,0.93
2018-12-03T03:42:22.702Z,0.90
2018-12-03T03:44:25.899Z,0.80
2018-12-03T03:46:29.058Z,0.90
2018-12-03T03:48:32.191Z,0.90
2018-12-03T03:50:35.346Z,1.27
2018-12-03T03:52:39.054Z,1.27
2018-12-03T03:54:42.195Z,1.00
2018-12-03T03:56:45.702Z,1.10
2018-12-03T03:58:48.860Z,0.90
2018-12-03T04:00:52.008Z,1.40
2018-12-03T04:02:56.208Z,1.03
2018-12-03T04:04:59.327Z,0.90
2018-12-03T04:07:02.458Z,1.20
2018-12-03T04:09:06.970Z,0.93
2018-12-03T04:11:10.095Z,1.20
2018-12-03T04:13:13.303Z,1.40
2018-12-03T04:15:16.971Z,1.03
2018-12-03T04:17:20.108Z,1.10
2018-12-03T04:19:23.243Z,1.63
2018-12-03T04:21:26.402Z,1.40
2018-12-03T04:23:29.783Z,1.10
2018-12-03T04:25:32.934Z,1.30
2018-12-03T04:27:36.143Z,1.30
2018-12-03T04:29:39.277Z,1.07
2018-12-03T04:31:42.421Z,1.13
2018-12-03T04:33:45.618Z,1.00
2018-12-03T04:35:48.737Z,1.20
2018-12-03T04:37:51.876Z,0.87
2018-12-03T04:39:55.059Z,0.90
2018-12-03T04:41:58.203Z,1.00
2018-12-03T04:44:01.614Z,0.80
2018-12-03T04:46:04.762Z,0.90
2018-12-03T04:48:07.890Z,0.80
2018-12-03T04:50:12.476Z,0.90
2018-12-03T04:52:15.386Z,0.80
2018-12-03T04:54:18.599Z,0.80
2018-12-03T04:56:21.782Z,0.90
2018-12-03T04:58:24.938Z,0.70
2018-12-03T05:00:28.136Z,0.90
2018-12-03T05:02:31.009Z,0.80
2018-12-03T05:04:35.406Z,0.80
2018-12-03T05:06:38.526Z,0.90
2018-12-03T05:08:41.679Z,0.80
2018-12-03T05:10:44.823Z,0.60
2018-12-03T05:12:49.939Z,0.77
2018-12-03T05:14:53.118Z,1.00
2018-12-03T05:16:56.250Z,0.70
2018-12-03T05:18:59.383Z,0.90
2018-12-03T05:21:02.519Z,0.80
2018-12-03T05:23:05.871Z,0.67
2018-12-03T05:25:10.183Z,0.80
2018-12-03T05:27:13.315Z,0.77
2018-12-03T05:29:16.458Z,0.90
2018-12-03T05:31:19.586Z,1.03
2018-12-03T05:33:22.720Z,0.90
2018-12-03T05:35:27.678Z,0.80
2018-12-03T05:37:30.800Z,0.90
2018-12-03T05:39:33.923Z,1.10
2018-12-03T05:41:37.446Z,0.93
2018-12-03T05:43:40.566Z,1.07
2018-12-03T05:45:43.874Z,1.10
2018-12-03T05:47:47.053Z,1.00
2018-12-03T05:49:50.247Z,1.00
2018-12-03T05:51:53.419Z,0.90
2018-12-03T05:53:56.614Z,1.03
2018-12-03T05:55:59.828Z,1.00
2018-12-03T05:58:02.970Z,0.90
2018-12-03T06:00:23.097Z,0.73
2018-12-03T06:02:26.238Z,0.67
2018-12-03T06:04:29.458Z,0.80
2018-12-03T06:06:34.054Z,0.83
2018-12-03T06:08:37.170Z,0.77
2018-12-03T06:10:40.330Z,0.67
2018-12-03T06:12:43.474Z,0.77
2018-12-03T06:14:46.636Z,0.90
2018-12-03T06:16:49.618Z,0.90
2018-12-03T06:18:53.070Z,0.87
2018-12-03T06:20:56.195Z,0.90
2018-12-03T06:22:59.490Z,1.07
2018-12-03T06:25:02.648Z,0.90
2018-12-03T06:27:05.928Z,0.90
2018-12-03T06:29:09.054Z,1.00
2018-12-03T06:31:12.218Z,1.03
2018-12-03T06:33:15.595Z,1.13
2018-12-03T06:35:19.105Z,1.00
2018-12-03T06:37:22.430Z,1.00
2018-12-03T06:39:25.647Z,1.10
2018-12-03T06:41:28.790Z,1.00
2018-12-03T06:43:32.635Z,0.90
2018-12-03T06:45:35.920Z,0.90
2018-12-03T06:47:41.538Z,1.10
2018-12-03T06:49:44.690Z,0.90
2018-12-03T06:51:47.823Z,1.10
2018-12-03T06:53:50.958Z,0.90
2018-12-03T06:55:54.675Z,1.00
2018-12-03T06:57:57.998Z,1.03
2018-12-03T07:00:01.133Z,0.93
2018-12-03T07:02:04.267Z,0.80
2018-12-03T07:04:07.396Z,0.80
2018-12-03T07:06:10.546Z,1.10
2018-12-03T07:08:14.194Z,1.30
2018-12-03T07:10:18.422Z,1.77
2018-12-03T07:12:21.550Z,1.57
2018-12-03T07:14:25.112Z,1.63
2018-12-03T07:16:28.235Z,1.70
2018-12-03T07:18:31.476Z,1.60
2018-12-03T07:20:34.623Z,1.80
2018-12-03T07:22:37.851Z,1.67
2018-12-03T07:24:40.962Z,1.77
2018-12-03T07:26:44.116Z,1.67
2018-12-03T07:28:47.582Z,1.80
2018-12-03T07:30:50.731Z,2.20
2018-12-03T07:32:54.591Z,5.40
2018-12-03T07:34:57.743Z,2.67
2018-12-03T07:37:00.879Z,2.63
2018-12-03T07:39:05.098Z,1.60
2018-12-03T07:41:08.242Z,1.70
2018-12-03T07:43:11.371Z,1.43
2018-12-03T07:45:15.937Z,1.40
2018-12-03T07:47:19.162Z,1.60
2018-12-03T07:49:23.562Z,1.30
2018-12-03T07:51:26.737Z,1.47
2018-12-03T07:53:29.980Z,1.30
2018-12-03T07:55:33.118Z,1.30
2018-12-03T07:57:36.323Z,1.60
2018-12-03T07:59:39.523Z,1.50
2018-12-03T08:01:42.682Z,1.40
2018-12-03T08:03:45.822Z,1.40
2018-12-03T08:05:48.954Z,1.57
2018-12-03T08:07:52.091Z,1.30
2018-12-03T08:09:55.801Z,1.30
2018-12-03T08:11:58.922Z,2.00
2018-12-03T08:14:02.034Z,1.23
2018-12-03T08:16:05.193Z,1.33
2018-12-03T08:18:10.318Z,1.50
2018-12-03T08:20:18.539Z,1.60
2018-12-03T08:22:21.677Z,1.50
2018-12-03T08:24:24.815Z,1.50
2018-12-03T08:26:28.016Z,1.70
2018-12-03T08:28:31.293Z,1.40
2018-12-03T08:30:35.485Z,1.40
2018-12-03T08:32:38.776Z,1.63
2018-12-03T08:34:41.906Z,1.90
2018-12-03T08:36:45.046Z,2.03
2018-12-03T08:38:47.942Z,1.70
2018-12-03T08:40:51.371Z,1.80
2018-12-03T08:42:55.064Z,1.60
2018-12-03T08:44:58.822Z,1.50
2018-12-03T08:47:10.267Z,1.70
2018-12-03T08:49:13.410Z,1.97
2018-12-03T08:51:16.848Z,1.93
2018-12-03T08:53:19.985Z,1.90
2018-12-03T08:55:23.101Z,1.60
2018-12-03T08:57:25.985Z,1.40
2018-12-03T08:59:32.670Z,1.80
2018-12-03T09:01:35.901Z,1.70
2018-12-03T09:03:39.369Z,1.87
2018-12-03T09:05:42.539Z,1.57
2018-12-03T09:07:45.425Z,1.70
2018-12-03T09:09:48.559Z,1.80
2018-12-03T09:11:53.177Z,1.70
2018-12-03T09:13:56.311Z,1.43
2018-12-03T09:16:00.537Z,1.40
2018-12-03T09:18:03.894Z,1.73
2018-12-03T09:20:08.888Z,1.90
2018-12-03T09:22:11.774Z,1.50
2018-12-03T09:24:14.950Z,2.03
2018-12-03T09:26:18.107Z,1.53
2018-12-03T09:28:21.219Z,1.80
2018-12-03T09:30:27.726Z,1.70
2018-12-03T09:32:32.622Z,1.80
2018-12-03T09:34:35.846Z,1.70
2018-12-03T09:36:38.913Z,1.90
2018-12-03T09:38:53.546Z,2.00
2018-12-03T09:40:58.938Z,1.93
2018-12-03T09:43:02.290Z,2.17
2018-12-03T09:45:10.437Z,1.80
2018-12-03T09:47:13.630Z,2.10
2018-12-03T09:49:16.902Z,1.90
2018-12-03T09:51:20.030Z,1.67
2018-12-03T09:53:24.320Z,1.70
2018-12-03T09:55:29.537Z,1.80
2018-12-03T09:57:32.667Z,1.70
2018-12-03T09:59:35.886Z,1.93
2018-12-03T10:01:39.131Z,1.67
2018-12-03T10:03:44.978Z,2.27
2018-12-03T10:05:54.191Z,1.90
2018-12-03T10:07:57.294Z,1.67
2018-12-03T10:10:00.640Z,1.73
2018-12-03T10:12:04.260Z,1.73
2018-12-03T10:14:07.826Z,1.47
2018-12-03T10:16:10.970Z,2.23
2018-12-03T10:18:14.126Z,1.80
2018-12-03T10:20:17.277Z,2.27
2018-12-03T10:22:20.450Z,2.17
2018-12-03T10:24:23.603Z,1.93
2018-12-03T10:26:26.834Z,1.97
2018-12-03T10:28:30.257Z,2.60
2018-12-03T10:30:33.414Z,2.47
2018-12-03T10:32:36.579Z,1.60
2018-12-03T10:34:40.798Z,1.90
2018-12-03T10:36:50.054Z,1.77
2018-12-03T10:39:32.874Z,1.97
2018-12-03T10:41:37.874Z,1.93
2018-12-03T10:43:41.057Z,2.23
2018-12-03T10:45:44.041Z,1.93
2018-12-03T10:47:46.977Z,1.57
2018-12-03T10:49:50.180Z,1.80
2018-12-03T10:51:53.525Z,1.70
2018-12-03T10:53:56.597Z,1.70
2018-12-03T10:56:00.141Z,1.80
2018-12-03T10:58:03.911Z,1.80
2018-12-03T11:00:14.087Z,1.43
2018-12-03T11:02:32.106Z,1.60
2018-12-03T11:04:41.520Z,1.60
2018-12-03T11:06:45.026Z,1.70
2018-12-03T11:08:48.349Z,1.40
2018-12-03T11:10:52.234Z,1.60
2018-12-03T11:12:55.952Z,1.70
2018-12-03T11:14:59.301Z,1.77
2018-12-03T11:17:03.130Z,1.50
2018-12-03T11:19:07.934Z,1.57
2018-12-03T11:21:11.302Z,1.30
2018-12-03T11:23:20.586Z,1.10
2018-12-03T11:25:29.692Z,1.10
2018-12-03T11:27:35.863Z,1.10
2018-12-03T11:29:40.707Z,1.00
2018-12-03T11:34:11.254Z,1.17
2018-12-03T11:36:16.146Z,0.93
2018-12-03T11:38:23.863Z,1.00
2018-12-03T11:40:35.350Z,1.00
2018-12-03T11:42:38.720Z,0.80
2018-12-03T11:44:42.191Z,1.13
2018-12-03T11:46:45.455Z,0.90
2018-12-03T11:48:48.731Z,0.83
2018-12-03T11:50:52.157Z,0.90
2018-12-03T11:52:55.330Z,1.10
2018-12-03T11:55:01.829Z,0.90
2018-12-03T11:57:06.587Z,0.80
2018-12-03T11:59:09.758Z,1.00
2018-12-03T12:01:13.030Z,0.90
2018-12-03T12:03:16.275Z,1.03
2018-12-03T12:05:20.515Z,1.00
2018-12-03T12:07:23.675Z,0.80
2018-12-03T12:09:26.865Z,1.10
2018-12-03T12:11:30.186Z,1.03
2018-12-03T12:13:33.329Z,1.00
2018-12-03T12:15:37.021Z,0.80
2018-12-03T12:17:40.243Z,1.00
2018-12-03T12:19:43.427Z,1.10
2018-12-03T12:21:46.606Z,0.93
2018-12-03T12:23:49.971Z,0.70
2018-12-03T12:25:53.595Z,1.10
2018-12-03T12:27:58.209Z,0.90
2018-12-03T12:30:10.895Z,1.63
2018-12-03T12:32:13.842Z,0.50
2018-12-03T12:34:17.339Z,0.90
2018-12-03T12:36:21.655Z,0.80
2018-12-03T12:38:24.847Z,1.00
2018-12-03T12:40:28.004Z,0.67
2018-12-03T12:42:31.923Z,0.80
2018-12-03T12:44:35.687Z,0.37
2018-12-03T12:46:41.017Z,0.70
2018-12-03T12:48:44.183Z,0.60
2018-12-03T12:50:47.448Z,0.87
2018-12-03T12:52:50.795Z,0.77
2018-12-03T12:54:53.987Z,0.80
2018-12-03T12:56:57.374Z,0.77
2018-12-03T12:59:02.518Z,0.73
2018-12-03T13:01:06.636Z,0.70
2018-12-03T13:03:09.998Z,0.73
2018-12-03T13:05:13.744Z,0.80
2018-12-03T13:07:16.740Z,0.70
2018-12-03T13:09:20.126Z,0.83
2018-12-03T13:11:23.291Z,0.90
2018-12-03T13:13:26.549Z,0.70
2018-12-03T13:15:29.791Z,0.80
2018-12-03T13:17:34.187Z,0.90
2018-12-03T13:19:37.847Z,0.90
2018-12-03T13:21:41.142Z,0.80
2018-12-03T13:23:45.322Z,0.73
2018-12-03T13:25:48.561Z,1.30
2018-12-03T13:27:52.723Z,0.90
2018-12-03T13:29:55.866Z,0.97
2018-12-03T13:31:59.455Z,1.10
2018-12-03T13:34:03.578Z,1.23
2018-12-03T13:36:09.324Z,1.23
2018-12-03T13:38:12.846Z,1.10
2018-12-03T13:40:16.401Z,1.03
2018-12-03T13:42:19.771Z,1.03
2018-12-03T13:44:22.991Z,1.57
2018-12-03T13:46:26.186Z,1.37
2018-12-03T13:48:29.700Z,1.10
2018-12-03T13:50:32.862Z,1.20
2018-12-03T13:52:36.007Z,1.30
2018-12-03T13:54:39.150Z,1.23
2018-12-03T13:56:42.313Z,1.07
2018-12-03T13:58:46.217Z,1.10
2018-12-03T14:00:49.541Z,1.20
2018-12-03T14:04:01.730Z,0.93
2018-12-03T14:06:13.135Z,0.97
2018-12-03T14:08:24.294Z,1.20
2018-12-03T14:10:40.892Z,1.07
2018-12-03T14:12:48.236Z,1.30
2018-12-03T14:17:07.617Z,1.20
2018-12-03T14:19:14.775Z,1.00
2018-12-03T14:21:38.052Z,0.90
2018-12-03T14:23:42.691Z,1.10
2018-12-03T14:25:46.184Z,1.00
2018-12-03T14:27:49.440Z,0.83
2018-12-03T14:29:52.671Z,1.00
2018-12-03T14:31:55.995Z,1.17
2018-12-03T14:33:59.532Z,1.00
2018-12-03T14:36:03.399Z,1.50
2018-12-03T14:38:07.251Z,1.40
2018-12-03T14:40:11.017Z,1.20
2018-12-03T14:42:18.016Z,0.77
2018-12-03T14:44:21.392Z,0.77
2018-12-03T14:46:24.680Z,0.97
2018-12-03T14:48:27.814Z,1.17
2018-12-03T14:50:31.291Z,1.10
2018-12-03T14:52:34.559Z,1.00
2018-12-03T14:54:37.638Z,1.10
2018-12-03T14:56:40.878Z,1.10
2018-12-03T14:58:44.110Z,1.20
2018-12-03T15:00:47.430Z,1.30
2018-12-03T15:02:51.638Z,1.20
2018-12-03T15:04:54.794Z,1.63
2018-12-03T15:06:57.951Z,1.37
2018-12-03T15:09:02.217Z,1.27
2018-12-03T15:11:05.621Z,1.47
2018-12-03T15:13:09.308Z,1.83
2018-12-03T15:15:12.325Z,1.27
2018-12-03T15:17:15.231Z,1.10
2018-12-03T15:19:18.459Z,1.63
2018-12-03T15:21:21.635Z,1.60
2018-12-03T15:23:24.615Z,1.30
2018-12-03T15:25:27.902Z,1.23
2018-12-03T15:27:31.043Z,1.10
2018-12-03T15:29:34.183Z,1.50
2018-12-03T15:31:37.340Z,1.50
2018-12-03T15:33:40.666Z,1.63
2018-12-03T15:35:43.826Z,1.40
2018-12-03T15:37:47.149Z,1.10
2018-12-03T15:39:50.747Z,1.40
2018-12-03T15:41:53.975Z,1.20
2018-12-03T15:43:56.947Z,1.40
2018-12-03T15:46:00.722Z,1.50
2018-12-03T15:48:04.282Z,1.60
2018-12-03T15:50:07.888Z,1.23
2018-12-03T15:52:11.303Z,1.20
2018-12-03T15:54:14.574Z,1.33
2018-12-03T15:56:17.579Z,1.50
2018-12-03T15:58:20.843Z,1.50
2018-12-03T16:00:24.022Z,1.90
2018-12-03T16:02:27.389Z,1.30
2018-12-03T16:04:30.642Z,1.50
2018-12-03T16:06:33.785Z,1.10
2018-12-03T16:08:36.927Z,1.40
2018-12-03T16:10:40.072Z,1.10
2018-12-03T16:12:44.867Z,1.37
2018-12-03T16:14:48.365Z,1.63
2018-12-03T16:16:51.504Z,1.60
2018-12-03T16:18:54.654Z,1.87
2018-12-03T16:20:58.378Z,1.30
2018-12-03T16:23:02.200Z,1.50
2018-12-03T16:25:07.492Z,1.50
2018-12-03T16:27:10.802Z,1.50
2018-12-03T16:29:13.943Z,1.60
2018-12-03T16:31:17.084Z,1.87
2018-12-03T16:33:20.468Z,2.00
2018-12-03T16:35:23.835Z,1.83
2018-12-03T16:37:27.135Z,1.50
2018-12-03T16:39:30.452Z,1.30
2018-12-03T16:41:34.231Z,1.40
2018-12-03T16:43:37.465Z,1.67
2018-12-03T16:45:40.728Z,1.90
2018-12-03T16:47:43.865Z,2.40
2018-12-03T16:49:46.995Z,1.80
2018-12-03T16:51:50.255Z,1.40
2018-12-03T16:53:53.407Z,1.80
2018-12-03T16:55:56.848Z,1.53
2018-12-03T16:58:00.309Z,2.33
2018-12-03T17:00:05.587Z,2.20
2018-12-03T17:02:08.883Z,2.07
2018-12-03T17:04:12.173Z,2.27
2018-12-03T17:06:15.763Z,1.93
2018-12-03T17:08:18.986Z,2.07
2018-12-03T17:10:22.280Z,2.50
2018-12-03T17:12:28.165Z,2.07
2018-12-03T17:14:31.390Z,2.07
2018-12-03T17:16:34.618Z,2.30
2018-12-03T17:18:37.984Z,2.30
2018-12-03T17:20:49.999Z,2.50
2018-12-03T17:23:03.561Z,2.40
2018-12-03T17:25:19.347Z,2.20
2018-12-03T17:27:22.626Z,2.00
2018-12-03T17:29:25.574Z,2.20
2018-12-03T17:31:29.117Z,2.27
2018-12-03T17:33:32.318Z,2.23
2018-12-03T17:35:35.875Z,2.50
2018-12-03T17:37:40.474Z,2.40
2018-12-03T17:39:43.617Z,2.23
2018-12-03T17:41:46.915Z,2.33
2018-12-03T17:43:50.264Z,2.20
2018-12-03T17:45:53.502Z,2.90
2018-12-03T17:47:56.829Z,2.57
2018-12-03T17:49:59.756Z,2.77
2018-12-03T17:52:03.860Z,2.27
2018-12-03T17:54:07.854Z,2.33
2018-12-03T17:56:10.819Z,2.53
2018-12-03T17:58:14.058Z,2.50
2018-12-03T18:00:18.449Z,2.67
2018-12-03T18:02:21.411Z,2.23
2018-12-03T18:04:24.566Z,2.60
2018-12-03T18:06:28.623Z,2.20
2018-12-03T18:08:32.302Z,2.77
2018-12-03T18:10:35.428Z,2.30
2018-12-03T18:12:39.175Z,2.33
2018-12-03T18:14:42.301Z,2.00
2018-12-03T18:16:45.843Z,2.50
2018-12-03T18:18:49.084Z,2.20
2018-12-03T18:20:52.218Z,2.40
2018-12-03T18:22:55.370Z,2.03
2018-12-03T18:24:58.745Z,2.40
2018-12-03T18:27:03.058Z,2.43
2018-12-03T18:29:06.861Z,2.77
2018-12-03T18:31:10.702Z,2.40
2018-12-03T18:33:13.810Z,2.60
2018-12-03T18:35:16.709Z,2.57
2018-12-03T18:37:20.143Z,2.77
2018-12-03T18:39:23.659Z,3.00
2018-12-03T18:41:26.775Z,2.80
2018-12-03T18:43:30.126Z,2.87
2018-12-03T18:45:33.278Z,2.20
2018-12-03T18:47:36.436Z,2.80
2018-12-03T18:49:43.660Z,2.20
2018-12-03T18:51:46.795Z,2.30
2018-12-03T18:53:49.939Z,2.30
2018-12-03T18:55:53.567Z,2.07
2018-12-03T18:58:00.964Z,2.40
2018-12-03T19:00:09.212Z,2.00
2018-12-03T19:02:12.428Z,1.97
2018-12-03T19:04:16.378Z,2.07
2018-12-03T19:06:19.634Z,2.30
2018-12-03T19:08:22.801Z,2.10
2018-12-03T19:10:26.064Z,1.90
2018-12-03T19:12:29.331Z,2.10
2018-12-03T19:14:32.470Z,1.80
2018-12-03T19:16:35.684Z,2.20
2018-12-03T19:18:38.887Z,2.10
2018-12-03T19:20:42.379Z,2.10
2018-12-03T19:22:45.644Z,1.80
2018-12-03T19:24:48.766Z,2.00
2018-12-03T19:26:51.923Z,1.98
2018-12-03T19:28:55.151Z,1.70
2018-12-03T19:30:58.742Z,2.30
2018-12-03T19:33:02.575Z,2.37
2018-12-03T19:35:06.374Z,1.77
2018-12-03T19:37:10.102Z,2.10
2018-12-03T19:39:13.462Z,2.00
2018-12-03T19:41:16.696Z,2.00
2018-12-03T19:43:19.578Z,2.40
2018-12-03T19:45:23.028Z,2.10
2018-12-03T19:47:26.234Z,2.13
2018-12-03T19:49:29.449Z,2.43
2018-12-03T19:51:32.837Z,2.73
2018-12-03T19:53:35.963Z,2.73
2018-12-03T19:55:39.216Z,3.40
2018-12-03T19:57:43.867Z,3.00
2018-12-03T19:59:49.423Z,2.50
2018-12-03T20:01:52.643Z,2.00
2018-12-03T20:03:55.880Z,2.00
2018-12-03T20:05:59.177Z,2.10
2018-12-03T20:08:03.816Z,2.10
2018-12-03T20:10:08.962Z,1.70
2018-12-03T20:12:12.515Z,1.90
2018-12-03T20:14:15.681Z,1.83
2018-12-03T20:16:19.034Z,1.87
2018-12-03T20:18:22.199Z,1.80
2018-12-03T20:20:39.218Z,2.20
2018-12-03T20:22:51.351Z,1.73
2018-12-03T20:24:54.583Z,1.80
2018-12-03T20:27:09.202Z,2.13
2018-12-03T20:29:26.734Z,2.27
2018-12-03T20:31:38.380Z,2.35
2018-12-03T20:34:50.827Z,2.73
2018-12-03T20:38:06.835Z,2.70
2018-12-03T20:42:29.042Z,2.20
2018-12-03T20:44:41.746Z,2.37
2018-12-03T20:47:12.272Z,2.60
2018-12-03T20:49:31.779Z,2.37
2018-12-03T20:51:38.235Z,2.03
2018-12-03T20:53:46.371Z,2.50
2018-12-03T20:55:50.004Z,2.33
2018-12-03T20:57:53.179Z,2.10
2018-12-03T20:59:56.475Z,2.40
2018-12-03T21:02:00.031Z,2.10
2018-12-03T21:04:02.931Z,2.47
2018-12-03T21:06:06.203Z,2.00
2018-12-03T21:08:11.130Z,2.00
2018-12-03T21:10:14.529Z,1.97
2018-12-03T21:12:17.928Z,2.10
2018-12-03T21:14:21.518Z,2.17
2018-12-03T21:16:24.811Z,2.37
2018-12-03T21:18:28.038Z,2.00
2018-12-03T21:20:36.819Z,1.57
2018-12-03T21:22:40.177Z,1.90
2018-12-03T21:24:48.395Z,1.73
2018-12-03T21:26:52.362Z,2.00
2018-12-03T21:28:55.535Z,1.70
2018-12-03T21:30:58.727Z,1.77
2018-12-03T21:33:02.046Z,1.63
2018-12-03T21:35:05.874Z,2.00
2018-12-03T21:37:09.450Z,2.13
2018-12-03T21:39:13.537Z,2.00
2018-12-03T21:41:16.891Z,2.00
2018-12-03T21:43:21.379Z,1.83
2018-12-03T21:45:24.935Z,2.70
2018-12-03T21:47:28.635Z,2.00
2018-12-03T21:49:31.919Z,2.50
2018-12-03T21:51:35.186Z,2.30
2018-12-03T21:53:38.565Z,2.40
2018-12-03T21:55:43.206Z,2.13
2018-12-03T21:57:46.836Z,2.13
2018-12-03T21:59:50.233Z,2.40
2018-12-03T22:01:53.496Z,2.30
2018-12-03T22:03:56.970Z,1.97
2018-12-03T22:06:00.155Z,2.20
2018-12-03T22:08:03.611Z,2.10
2018-12-03T22:10:06.945Z,1.73
2018-12-03T22:12:10.202Z,1.90
2018-12-03T22:14:14.097Z,1.57
2018-12-03T22:16:17.562Z,1.93
2018-12-03T22:18:21.108Z,2.30
2018-12-03T22:20:24.310Z,2.10
2018-12-03T22:22:27.727Z,1.90
2018-12-03T22:24:31.131Z,2.30
2018-12-03T22:26:34.332Z,2.10
2018-12-03T22:28:37.730Z,2.30
2018-12-03T22:30:41.158Z,2.37
2018-12-03T22:32:44.827Z,1.87
2018-12-03T22:34:48.202Z,1.80
2018-12-03T22:36:51.434Z,1.67
2018-12-03T22:38:54.801Z,3.43
2018-12-03T22:40:57.942Z,1.70
2018-12-03T22:43:01.074Z,1.30
2018-12-03T22:45:04.840Z,1.30
2018-12-03T22:47:07.987Z,1.50
2018-12-03T22:49:11.840Z,1.80
2018-12-03T22:51:15.290Z,1.80
2018-12-03T22:53:18.840Z,1.50
2018-12-03T22:55:22.467Z,1.37
2018-12-03T22:57:25.760Z,1.57
2018-12-03T22:59:29.103Z,1.67
2018-12-03T23:01:32.434Z,1.80
2018-12-03T23:03:35.758Z,1.63
2018-12-03T23:05:39.004Z,1.33
2018-12-03T23:07:42.819Z,1.70
2018-12-03T23:09:46.426Z,1.70
2018-12-03T23:11:50.090Z,2.20
2018-12-03T23:13:53.487Z,1.50
2018-12-03T23:15:56.457Z,1.80
2018-12-03T23:17:59.746Z,1.83
2018-12-03T23:20:03.342Z,1.90
2018-12-03T23:22:06.590Z,1.50
2018-12-03T23:24:09.760Z,1.80
2018-12-03T23:26:14.575Z,1.63
2018-12-03T23:28:18.185Z,2.40
2018-12-03T23:30:21.616Z,1.90
2018-12-03T23:32:25.091Z,1.83
2018-12-03T23:34:28.230Z,1.90
2018-12-03T23:36:31.289Z,1.40
2018-12-03T23:38:34.450Z,1.80
2018-12-03T23:40:37.429Z,1.60
2018-12-03T23:42:40.720Z,1.70
2018-12-03T23:44:44.762Z,1.43
2018-12-03T23:46:48.462Z,2.07
2018-12-03T23:48:51.649Z,2.70
2018-12-03T23:50:55.355Z,2.03
2018-12-03T23:52:58.718Z,1.53
2018-12-03T23:55:01.896Z,2.20
2018-12-03T23:57:05.127Z,1.77
2018-12-03T23:59:08.282Z,2.03
